Time;durP1;ratioP1;P1;durP2;ratioP2;P2;SDS_P1;SDS_P2;PMS_P1;PMS_P2;Temp;Humidity;BMP_temperature;BMP_pressure;BME280_temperature;BME280_humidity;BME280_pressure;Samples;Min_cycle;Max_cycle;Signal;HPM_P1;HPM_P2
2023/07/29 00:02:00;;;;;;;3.45;1.58;;;;;;;;;;5010720;28;20037;-77
2023/07/29 00:04:26;;;;;;;4.50;1.30;;;;;;;;;;5010569;28;20052;-78
2023/07/29 00:06:52;;;;;;;1.95;1.17;;;;;;;;;;5011895;28;20026;-78
2023/07/29 00:09:17;;;;;;;3.30;1.20;;;;;;;;;;4993486;28;20221;-78
2023/07/29 00:11:43;;;;;;;2.33;1.33;;;;;;;;;;5005469;28;20037;-79
2023/07/29 00:14:08;;;;;;;1.80;1.00;;;;;;;;;;5011900;28;20044;-78
2023/07/29 00:16:34;;;;;;;2.72;1.30;;;;;;;;;;4994193;28;20536;-79
2023/07/29 00:19:00;;;;;;;1.50;0.95;;;;;;;;;;5010574;28;20169;-79
2023/07/29 00:21:25;;;;;;;3.45;1.00;;;;;;;;;;5013967;28;20456;-77
2023/07/29 00:23:51;;;;;;;2.10;1.20;;;;;;;;;;5013270;28;20030;-78
2023/07/29 00:26:17;;;;;;;2.05;1.35;;;;;;;;;;5010590;28;20033;-78
2023/07/29 00:28:43;;;;;;;2.45;1.15;;;;;;;;;;5010956;28;20393;-77
2023/07/29 00:31:08;;;;;;;2.72;1.30;;;;;;;;;;5010790;28;20036;-78
2023/07/29 00:33:34;;;;;;;2.40;0.93;;;;;;;;;;5010638;28;20473;-78
2023/07/29 00:36:01;;;;;;;2.45;1.15;;;;;;;;;;5012430;28;20030;-78
2023/07/29 00:38:27;;;;;;;2.08;1.30;;;;;;;;;;5012750;28;20049;-78
2023/07/29 00:40:53;;;;;;;2.55;1.25;;;;;;;;;;5012333;28;20061;-78
2023/07/29 00:43:19;;;;;;;2.00;1.10;;;;;;;;;;4995105;28;20061;-79
2023/07/29 00:45:48;;;;;;;1.98;1.17;;;;;;;;;;5012538;28;20092;-77
2023/07/29 00:48:13;;;;;;;;;;;;;;;;;;4995054;28;20537;-79
2023/07/29 00:50:40;;;;;;;1.67;1.05;;;;;;;;;;5024091;28;19909;-79
2023/07/29 00:53:08;;;;;;;2.03;1.30;;;;;;;;;;4982907;28;20061;-79
2023/07/29 00:55:37;;;;;;;1.92;0.93;;;;;;;;;;5010544;28;20080;-78
2023/07/29 00:58:02;;;;;;;1.98;1.00;;;;;;;;;;5011889;28;20040;-77
2023/07/29 01:00:28;;;;;;;2.30;0.98;;;;;;;;;;5009693;28;20482;-78
2023/07/29 01:02:54;;;;;;;2.00;1.08;;;;;;;;;;4993578;28;20084;-78
2023/07/29 01:05:20;;;;;;;1.92;1.13;;;;;;;;;;5010116;28;20083;-78
2023/07/29 01:07:49;;;;;;;3.30;1.25;;;;;;;;;;4990636;28;20109;-77
2023/07/29 01:10:27;;;;;;;2.17;1.20;;;;;;;;;;5007786;28;20515;-78
2023/07/29 01:12:53;;;;;;;4.45;1.30;;;;;;;;;;5010038;28;20500;-78
2023/07/29 01:15:21;;;;;;;2.53;1.30;;;;;;;;;;5009706;28;20014;-79
2023/07/29 01:17:55;;;;;;;2.03;1.10;;;;;;;;;;4993778;28;20120;-78
2023/07/29 01:20:22;;;;;;;2.47;1.00;;;;;;;;;;4996175;28;20041;-78
2023/07/29 01:22:48;;;;;;;3.83;1.45;;;;;;;;;;5013499;28;20022;-78
2023/07/29 01:25:13;;;;;;;2.22;1.30;;;;;;;;;;4997196;28;20030;-77
2023/07/29 01:27:40;;;;;;;2.30;1.25;;;;;;;;;;5014797;28;20485;-77
2023/07/29 01:30:06;;;;;;;3.58;1.33;;;;;;;;;;5014457;28;20115;-77
2023/07/29 01:32:32;;;;;;;2.90;1.50;;;;;;;;;;4997487;28;20107;-78
2023/07/29 01:35:05;;;;;;;2.45;1.23;;;;;;;;;;5014744;28;20053;-77
2023/07/29 01:37:32;;;;;;;2.85;1.35;;;;;;;;;;5015060;28;20026;-78
2023/07/29 01:39:59;;;;;;;2.55;1.30;;;;;;;;;;4997478;28;20072;-78
2023/07/29 01:42:24;;;;;;;5.13;1.05;;;;;;;;;;5014063;28;20022;-78
2023/07/29 01:44:50;;;;;;;2.50;1.25;;;;;;;;;;5015185;28;20393;-78
2023/07/29 01:47:16;;;;;;;2.38;1.17;;;;;;;;;;5014408;28;20033;-78
2023/07/29 01:49:42;;;;;;;3.80;1.30;;;;;;;;;;5013969;28;20289;-77
2023/07/29 01:52:07;;;;;;;1.88;1.05;;;;;;;;;;5014437;28;20476;-78
2023/07/29 01:54:33;;;;;;;4.55;1.30;;;;;;;;;;5014092;28;20113;-78
2023/07/29 01:56:58;;;;;;;2.75;1.40;;;;;;;;;;5013161;28;20061;-78
2023/07/29 01:59:24;;;;;;;2.50;1.20;;;;;;;;;;5013373;28;20034;-76
2023/07/29 02:01:49;;;;;;;2.00;1.20;;;;;;;;;;5013767;28;20072;-77
2023/07/29 02:04:15;;;;;;;2.30;1.23;;;;;;;;;;5013129;28;20065;-76
2023/07/29 02:06:41;;;;;;;2.28;1.30;;;;;;;;;;5013112;28;20037;-77
2023/07/29 02:09:06;;;;;;;2.03;1.10;;;;;;;;;;5012849;28;20120;-77
2023/07/29 02:11:32;;;;;;;2.58;1.30;;;;;;;;;;5014148;28;20405;-77
2023/07/29 02:13:58;;;;;;;1.90;1.30;;;;;;;;;;5013704;28;20108;-78
2023/07/29 02:16:24;;;;;;;2.88;1.20;;;;;;;;;;4979008;28;20424;-78
2023/07/29 02:18:49;;;;;;;5.45;1.40;;;;;;;;;;5013833;28;20018;-78
2023/07/29 02:21:15;;;;;;;2.53;1.10;;;;;;;;;;5012229;28;20105;-78
2023/07/29 02:23:41;;;;;;;4.05;1.38;;;;;;;;;;5012552;28;20381;-77
2023/07/29 02:26:07;;;;;;;2.40;1.25;;;;;;;;;;5012206;28;20026;-78
2023/07/29 02:28:32;;;;;;;3.30;1.38;;;;;;;;;;4976581;28;20022;-78
2023/07/29 02:31:17;;;;;;;1.90;1.20;;;;;;;;;;5012033;28;20026;-77
2023/07/29 02:33:43;;;;;;;2.30;1.20;;;;;;;;;;4995915;28;20088;-77
2023/07/29 02:36:09;;;;;;;2.45;1.20;;;;;;;;;;5013224;28;20112;-78
2023/07/29 02:38:35;;;;;;;2.63;1.30;;;;;;;;;;5011924;28;20513;-78
2023/07/29 02:41:03;;;;;;;;;;;;;;;;;;5012636;28;20061;-79
2023/07/29 02:43:29;;;;;;;5.22;1.40;;;;;;;;;;5025169;28;20361;-78
2023/07/29 02:45:55;;;;;;;3.40;1.38;;;;;;;;;;5006912;28;20050;-78
2023/07/29 02:48:21;;;;;;;2.40;1.38;;;;;;;;;;5009138;28;20045;-77
2023/07/29 02:50:46;;;;;;;2.45;1.42;;;;;;;;;;4995821;28;20041;-77
2023/07/29 02:53:12;;;;;;;2.85;1.10;;;;;;;;;;5011800;28;20030;-78
2023/07/29 02:55:41;;;;;;;2.55;1.30;;;;;;;;;;4995639;28;20041;-78
2023/07/29 02:58:07;;;;;;;1.77;1.00;;;;;;;;;;5011845;28;20084;-77
2023/07/29 03:00:33;;;;;;;3.45;1.63;;;;;;;;;;5011755;28;20030;-77
2023/07/29 03:02:59;;;;;;;4.03;1.42;;;;;;;;;;5011856;28;20217;-77
2023/07/29 03:05:27;;;;;;;1.95;1.17;;;;;;;;;;5011709;28;20687;-77
2023/07/29 03:07:52;;;;;;;3.20;1.67;;;;;;;;;;5012901;28;20028;-77
2023/07/29 03:10:18;;;;;;;3.75;1.50;;;;;;;;;;4995253;28;20061;-77
2023/07/29 03:12:44;;;;;;;5.07;1.42;;;;;;;;;;5011715;28;20440;-77
2023/07/29 03:15:09;;;;;;;3.28;1.60;;;;;;;;;;5011683;28;20370;-77
2023/07/29 03:17:35;;;;;;;3.17;1.30;;;;;;;;;;5011368;28;20499;-78
2023/07/29 03:20:01;;;;;;;2.25;1.40;;;;;;;;;;5012760;28;20424;-77
2023/07/29 03:22:26;;;;;;;3.63;1.25;;;;;;;;;;4995004;28;20443;-78
2023/07/29 03:24:52;;;;;;;2.67;1.30;;;;;;;;;;4995381;28;20025;-77
2023/07/29 03:27:18;;;;;;;3.25;1.60;;;;;;;;;;5011419;28;20034;-77
2023/07/29 03:29:44;;;;;;;2.40;1.20;;;;;;;;;;5011625;28;20393;-77
2023/07/29 03:32:10;;;;;;;6.90;1.58;;;;;;;;;;5012739;28;20030;-77
2023/07/29 03:34:36;;;;;;;1.98;1.35;;;;;;;;;;5011053;28;20443;-78
2023/07/29 03:37:02;;;;;;;2.45;1.30;;;;;;;;;;5011362;28;20109;-78
2023/07/29 03:39:27;;;;;;;2.47;1.35;;;;;;;;;;5011535;28;20393;-79
2023/07/29 03:41:53;;;;;;;2.15;1.30;;;;;;;;;;4994219;28;20140;-79
2023/07/29 03:44:19;;;;;;;2.60;1.40;;;;;;;;;;5011015;28;20057;-79
2023/07/29 03:46:45;;;;;;;3.95;1.95;;;;;;;;;;5012485;28;20477;-79
2023/07/29 03:49:13;;;;;;;3.80;1.60;;;;;;;;;;5012471;28;20053;-80
2023/07/29 03:51:39;;;;;;;3.33;1.63;;;;;;;;;;4994574;28;20378;-79
2023/07/29 03:54:05;;;;;;;2.20;1.30;;;;;;;;;;4994597;28;20048;-78
2023/07/29 03:56:30;;;;;;;2.90;1.60;;;;;;;;;;5010743;28;20104;-79
2023/07/29 03:59:05;;;;;;;2.15;1.38;;;;;;;;;;5012414;28;20022;-78
2023/07/29 04:01:31;;;;;;;3.55;1.33;;;;;;;;;;5011088;28;20026;-79
2023/07/29 04:03:58;;;;;;;4.82;1.58;;;;;;;;;;5010960;28;20041;-79
2023/07/29 04:06:24;;;;;;;3.55;1.50;;;;;;;;;;5012001;28;20071;-79
2023/07/29 04:08:50;;;;;;;2.58;1.42;;;;;;;;;;5011006;28;20025;-78
2023/07/29 04:11:16;;;;;;;4.97;1.50;;;;;;;;;;5010877;28;20037;-77
2023/07/29 04:13:42;;;;;;;2.55;1.30;;;;;;;;;;5011335;28;20037;-77
2023/07/29 04:16:07;;;;;;;1.95;1.23;;;;;;;;;;4991304;28;20030;-77
2023/07/29 04:18:34;;;;;;;3.35;1.52;;;;;;;;;;4991647;28;20107;-77
2023/07/29 04:20:59;;;;;;;3.08;1.30;;;;;;;;;;5000043;28;20381;-78
2023/07/29 04:23:26;;;;;;;2.50;1.30;;;;;;;;;;5012171;28;20026;-76
2023/07/29 04:25:54;;;;;;;3.97;1.48;;;;;;;;;;4995774;28;20263;-77
2023/07/29 04:28:20;;;;;;;3.78;1.40;;;;;;;;;;5013173;28;20108;-79
2023/07/29 04:30:46;;;;;;;4.25;1.80;;;;;;;;;;5011619;28;20030;-78
2023/07/29 04:33:12;;;;;;;6.65;1.85;;;;;;;;;;4994503;28;20030;-77
2023/07/29 04:35:37;;;;;;;2.53;1.55;;;;;;;;;;4994597;28;20034;-75
2023/07/29 04:38:03;;;;;;;2.90;1.50;;;;;;;;;;4978517;28;20030;-76
2023/07/29 04:40:29;;;;;;;3.70;1.25;;;;;;;;;;4995359;28;20533;-76
2023/07/29 04:42:54;;;;;;;9.38;1.48;;;;;;;;;;5012180;28;20029;-77
2023/07/29 04:45:20;;;;;;;2.40;1.50;;;;;;;;;;5010952;28;20069;-77
2023/07/29 04:47:46;;;;;;;4.88;1.48;;;;;;;;;;5010927;28;20026;-77
2023/07/29 04:50:11;;;;;;;2.80;1.30;;;;;;;;;;5011044;28;20026;-76
2023/07/29 04:52:37;;;;;;;4.35;1.42;;;;;;;;;;5010713;28;20022;-77
2023/07/29 04:55:03;;;;;;;3.75;1.33;;;;;;;;;;5015089;28;20030;-76
2023/07/29 04:57:29;;;;;;;3.13;1.60;;;;;;;;;;4978839;28;20030;-79
2023/07/29 04:59:54;;;;;;;5.75;1.30;;;;;;;;;;5003582;28;20030;-79
2023/07/29 05:02:21;;;;;;;2.72;1.30;;;;;;;;;;4981813;28;20077;-80
2023/07/29 05:04:46;;;;;;;3.92;1.42;;;;;;;;;;4994594;28;20375;-79
2023/07/29 05:07:12;;;;;;;4.30;1.45;;;;;;;;;;5003321;28;20033;-77
2023/07/29 05:09:37;;;;;;;1.95;1.10;;;;;;;;;;5039154;23;20044;-75
2023/07/29 05:12:03;;;;;;;4.75;1.30;;;;;;;;;;5053586;28;20032;-75
2023/07/29 05:14:29;;;;;;;4.90;1.50;;;;;;;;;;5053321;28;20044;-75
2023/07/29 05:16:54;;;;;;;2.03;1.30;;;;;;;;;;5053157;28;20028;-76
2023/07/29 05:19:20;;;;;;;2.50;1.20;;;;;;;;;;5053113;28;20056;-77
2023/07/29 05:21:45;;;;;;;4.68;1.58;;;;;;;;;;5023131;28;20022;-77
2023/07/29 05:24:11;;;;;;;2.63;1.40;;;;;;;;;;5035158;28;20057;-76
2023/07/29 05:26:36;;;;;;;3.20;1.50;;;;;;;;;;5050105;28;20056;-77
2023/07/29 05:29:02;;;;;;;2.30;1.25;;;;;;;;;;5024361;28;20025;-77
2023/07/29 05:31:27;;;;;;;2.53;1.35;;;;;;;;;;5041821;28;20034;-77
2023/07/29 05:33:54;;;;;;;2.05;1.25;;;;;;;;;;5047756;28;20472;-76
2023/07/29 05:36:19;;;;;;;2.22;1.23;;;;;;;;;;5034544;28;20048;-76
2023/07/29 05:38:45;;;;;;;2.15;1.20;;;;;;;;;;5038394;28;20104;-77
2023/07/29 05:41:10;;;;;;;3.38;1.40;;;;;;;;;;5045309;28;20029;-75
2023/07/29 05:43:36;;;;;;;1.83;1.10;;;;;;;;;;5045374;28;20083;-76
2023/07/29 05:46:02;;;;;;;3.63;1.40;;;;;;;;;;5037956;28;20022;-76
2023/07/29 05:48:28;;;;;;;5.38;1.40;;;;;;;;;;5052282;28;20503;-76
2023/07/29 05:50:53;;;;;;;2.50;1.30;;;;;;;;;;5013103;28;20021;-77
2023/07/29 05:53:19;;;;;;;4.43;1.35;;;;;;;;;;5026185;28;20025;-76
2023/07/29 05:55:44;;;;;;;3.03;1.33;;;;;;;;;;5039139;28;20033;-76
2023/07/29 05:58:10;;;;;;;3.22;1.20;;;;;;;;;;5049075;28;20025;-75
2023/07/29 06:00:35;;;;;;;1.98;1.02;;;;;;;;;;5047392;28;20499;-76
2023/07/29 06:03:01;;;;;;;4.03;1.33;;;;;;;;;;5044948;28;20029;-76
2023/07/29 06:05:28;;;;;;;2.22;1.20;;;;;;;;;;5034249;28;20494;-76
2023/07/29 06:07:53;;;;;;;3.83;1.40;;;;;;;;;;5048654;28;20086;-76
2023/07/29 06:10:19;;;;;;;2.78;1.60;;;;;;;;;;5036959;28;20507;-77
2023/07/29 06:12:46;;;;;;;3.25;1.23;;;;;;;;;;5046983;28;20022;-77
2023/07/29 06:15:12;;;;;;;3.45;1.38;;;;;;;;;;5041830;28;20025;-76
2023/07/29 06:17:38;;;;;;;2.40;1.40;;;;;;;;;;5030522;28;20040;-77
2023/07/29 06:20:04;;;;;;;3.65;1.70;;;;;;;;;;5031338;28;20053;-76
2023/07/29 06:22:30;;;;;;;2.20;1.30;;;;;;;;;;5048374;28;20076;-77
2023/07/29 06:24:55;;;;;;;3.10;1.52;;;;;;;;;;5031962;28;20018;-77
2023/07/29 06:27:21;;;;;;;4.25;1.40;;;;;;;;;;5042549;28;20032;-77
2023/07/29 06:29:46;;;;;;;2.95;1.20;;;;;;;;;;5038061;28;20029;-76
2023/07/29 06:32:12;;;;;;;3.20;1.35;;;;;;;;;;5048402;28;20435;-77
2023/07/29 06:34:37;;;;;;;2.58;1.45;;;;;;;;;;5043701;28;20021;-77
2023/07/29 06:37:03;;;;;;;2.60;1.48;;;;;;;;;;5015266;28;20687;-77
2023/07/29 06:39:28;;;;;;;2.50;1.58;;;;;;;;;;5044490;28;20164;-74
2023/07/29 06:41:54;;;;;;;3.75;1.30;;;;;;;;;;5038241;28;20365;-77
2023/07/29 06:44:20;;;;;;;4.47;1.45;;;;;;;;;;5048158;28;20033;-77
2023/07/29 06:46:46;;;;;;;2.95;1.48;;;;;;;;;;5020722;28;20502;-76
2023/07/29 06:49:12;;;;;;;3.28;1.30;;;;;;;;;;5043854;28;20500;-76
2023/07/29 06:51:37;;;;;;;2.83;1.13;;;;;;;;;;5044046;28;20511;-77
2023/07/29 06:54:03;;;;;;;2.38;1.40;;;;;;;;;;5036641;28;20021;-76
2023/07/29 06:56:28;;;;;;;2.95;1.38;;;;;;;;;;5052351;28;20059;-76
2023/07/29 06:58:54;;;;;;;2.15;1.30;;;;;;;;;;5045708;28;20022;-78
2023/07/29 07:01:20;;;;;;;2.08;1.30;;;;;;;;;;5053476;28;20729;-76
2023/07/29 07:03:45;;;;;;;3.75;1.50;;;;;;;;;;5039410;28;20100;-75
2023/07/29 07:06:10;;;;;;;2.42;1.17;;;;;;;;;;5019213;28;20037;-76
2023/07/29 07:08:36;;;;;;;3.03;1.48;;;;;;;;;;5051741;28;20021;-76
2023/07/29 07:11:02;;;;;;;2.83;1.55;;;;;;;;;;5050526;28;20045;-76
2023/07/29 07:13:27;;;;;;;2.72;1.17;;;;;;;;;;5063224;28;20035;-74
2023/07/29 07:15:56;;;;;;;4.63;1.25;;;;;;;;;;5063336;28;20074;-78
2023/07/29 07:18:22;;;;;;;2.42;1.33;;;;;;;;;;5039362;28;20061;-77
2023/07/29 07:20:49;;;;;;;2.50;1.20;;;;;;;;;;5038941;28;20080;-75
2023/07/29 07:23:15;;;;;;;2.10;1.25;;;;;;;;;;5038083;28;20033;-77
2023/07/29 07:25:42;;;;;;;2.35;1.40;;;;;;;;;;5053158;28;20063;-77
2023/07/29 07:28:08;;;;;;;3.72;1.35;;;;;;;;;;5040482;28;20072;-77
2023/07/29 07:30:33;;;;;;;2.72;1.25;;;;;;;;;;5048823;28;20025;-76
2023/07/29 07:32:59;;;;;;;3.10;1.25;;;;;;;;;;5036475;28;20118;-77
2023/07/29 07:35:24;;;;;;;1.90;1.20;;;;;;;;;;5014467;28;20027;-76
2023/07/29 07:37:49;;;;;;;2.78;1.30;;;;;;;;;;5045998;28;20017;-76
2023/07/29 07:40:15;;;;;;;4.35;1.25;;;;;;;;;;5031895;28;20028;-76
2023/07/29 07:42:41;;;;;;;3.83;1.33;;;;;;;;;;5051092;28;20064;-74
2023/07/29 07:45:06;;;;;;;2.35;1.30;;;;;;;;;;5043580;28;20401;-77
2023/07/29 07:47:32;;;;;;;2.40;1.30;;;;;;;;;;5032349;28;20412;-76
2023/07/29 07:49:57;;;;;;;3.30;1.40;;;;;;;;;;5030767;28;20097;-76
2023/07/29 07:52:23;;;;;;;4.85;1.52;;;;;;;;;;5051140;28;20025;-76
2023/07/29 07:54:53;;;;;;;3.08;1.48;;;;;;;;;;5046390;28;20036;-77
2023/07/29 07:57:19;;;;;;;2.42;1.45;;;;;;;;;;5040565;28;20045;-75
2023/07/29 07:59:45;;;;;;;1.90;1.15;;;;;;;;;;5050465;28;20032;-77
2023/07/29 08:02:10;;;;;;;2.50;1.10;;;;;;;;;;5049679;28;20017;-76
2023/07/29 08:04:36;;;;;;;2.67;1.42;;;;;;;;;;5034263;28;20029;-76
2023/07/29 08:07:01;;;;;;;2.05;1.30;;;;;;;;;;5038827;28;20040;-76
2023/07/29 08:09:27;;;;;;;2.17;1.10;;;;;;;;;;5040105;28;20029;-76
2023/07/29 08:11:53;;;;;;;2.40;1.30;;;;;;;;;;5044867;28;20029;-74
2023/07/29 08:14:18;;;;;;;2.17;1.27;;;;;;;;;;5033426;28;20033;-77
2023/07/29 08:16:44;;;;;;;2.10;1.30;;;;;;;;;;5040835;28;20052;-75
2023/07/29 08:19:09;;;;;;;2.20;1.30;;;;;;;;;;5031465;28;20031;-77
2023/07/29 08:21:35;;;;;;;2.08;1.10;;;;;;;;;;5043400;28;20504;-75
2023/07/29 08:24:00;;;;;;;3.95;1.13;;;;;;;;;;5035213;28;20037;-76
2023/07/29 08:26:26;;;;;;;1.88;1.20;;;;;;;;;;5033918;28;20094;-76
2023/07/29 08:28:52;;;;;;;2.38;1.33;;;;;;;;;;5046782;28;20104;-76
2023/07/29 08:31:17;;;;;;;3.38;1.05;;;;;;;;;;5044142;28;20136;-77
2023/07/29 08:33:43;;;;;;;3.30;1.30;;;;;;;;;;5041948;28;20021;-75
2023/07/29 08:36:08;;;;;;;3.15;1.20;;;;;;;;;;5035680;28;20087;-76
2023/07/29 08:38:34;;;;;;;1.92;1.20;;;;;;;;;;5051259;28;20021;-75
2023/07/29 08:41:18;;;;;;;2.30;1.20;;;;;;;;;;5042409;28;20021;-77
2023/07/29 08:43:50;;;;;;;1.42;1.10;;;;;;;;;;5037127;28;20029;-77
2023/07/29 08:46:16;;;;;;;3.42;1.20;;;;;;;;;;5037289;28;20034;-76
2023/07/29 08:48:42;;;;;;;2.50;1.30;;;;;;;;;;5050022;28;20060;-75
2023/07/29 08:51:09;;;;;;;2.75;1.25;;;;;;;;;;5042259;28;20036;-75
2023/07/29 08:53:34;;;;;;;2.47;1.10;;;;;;;;;;5042573;28;20133;-76
2023/07/29 08:56:00;;;;;;;3.03;1.23;;;;;;;;;;5050291;28;20033;-75
2023/07/29 08:58:26;;;;;;;2.72;1.33;;;;;;;;;;5051788;28;20357;-77
2023/07/29 09:00:52;;;;;;;2.33;1.30;;;;;;;;;;5040481;28;20078;-77
2023/07/29 09:03:17;;;;;;;3.40;1.40;;;;;;;;;;5044885;28;20439;-76
2023/07/29 09:05:43;;;;;;;3.15;1.73;;;;;;;;;;5046762;28;20060;-76
2023/07/29 09:08:09;;;;;;;2.33;1.17;;;;;;;;;;5054175;28;20059;-77
2023/07/29 09:10:36;;;;;;;1.63;1.00;;;;;;;;;;5037335;28;20033;-75
2023/07/29 09:13:03;;;;;;;3.40;1.27;;;;;;;;;;5050778;28;20037;-77
2023/07/29 09:15:29;;;;;;;5.32;1.15;;;;;;;;;;5025476;28;20233;-76
2023/07/29 09:17:55;;;;;;;1.70;1.00;;;;;;;;;;5022920;28;20032;-77
2023/07/29 09:20:28;;;;;;;6.05;1.20;;;;;;;;;;5036319;28;20028;-74
2023/07/29 09:22:54;;;;;;;3.25;1.20;;;;;;;;;;5046527;28;20075;-76
2023/07/29 09:25:27;;;;;;;2.78;1.20;;;;;;;;;;5027093;28;20052;-77
2023/07/29 09:27:53;;;;;;;1.85;0.90;;;;;;;;;;5053034;28;20024;-76
2023/07/29 09:30:19;;;;;;;5.15;1.00;;;;;;;;;;5034591;28;20032;-77
2023/07/29 09:32:47;;;;;;;1.48;0.93;;;;;;;;;;5038794;28;20337;-76
2023/07/29 09:35:13;;;;;;;1.90;1.05;;;;;;;;;;5044873;28;20547;-76
2023/07/29 09:37:39;;;;;;;1.63;0.80;;;;;;;;;;5047057;28;20021;-76
2023/07/29 09:40:05;;;;;;;2.60;0.90;;;;;;;;;;5053067;28;20514;-76
2023/07/29 09:42:31;;;;;;;1.38;0.88;;;;;;;;;;5037347;28;20025;-77
2023/07/29 09:44:56;;;;;;;2.00;0.90;;;;;;;;;;5050163;28;20506;-77
2023/07/29 09:47:23;;;;;;;2.42;0.85;;;;;;;;;;5054096;28;20025;-76
2023/07/29 09:49:49;;;;;;;2.20;0.93;;;;;;;;;;5038929;28;20500;-76
2023/07/29 09:52:16;;;;;;;1.60;0.90;;;;;;;;;;5051231;28;20496;-75
2023/07/29 09:54:42;;;;;;;3.95;1.38;;;;;;;;;;5039982;28;20032;-77
2023/07/29 09:57:07;;;;;;;2.40;1.20;;;;;;;;;;5054881;28;20115;-75
2023/07/29 09:59:33;;;;;;;3.67;1.10;;;;;;;;;;5053945;28;20056;-76
2023/07/29 10:01:59;;;;;;;3.20;0.90;;;;;;;;;;5056798;28;20028;-75
2023/07/29 10:04:25;;;;;;;2.22;0.95;;;;;;;;;;5037718;28;20025;-76
2023/07/29 10:06:52;;;;;;;1.40;0.80;;;;;;;;;;5044978;28;20024;-75
2023/07/29 10:09:18;;;;;;;1.25;0.80;;;;;;;;;;5042807;28;20033;-75
2023/07/29 10:11:44;;;;;;;3.80;0.98;;;;;;;;;;5029417;28;20407;-77
2023/07/29 10:14:09;;;;;;;4.28;0.80;;;;;;;;;;5052681;28;20025;-74
2023/07/29 10:16:39;;;;;;;4.07;0.80;;;;;;;;;;5036356;28;20021;-74
2023/07/29 10:19:06;;;;;;;3.95;1.10;;;;;;;;;;5051949;28;20108;-76
2023/07/29 10:21:32;;;;;;;2.25;0.90;;;;;;;;;;5052113;28;20078;-77
2023/07/29 10:24:00;;;;;;;1.77;0.85;;;;;;;;;;5038202;28;20038;-75
2023/07/29 10:26:28;;;;;;;5.03;1.30;;;;;;;;;;5036308;28;20109;-77
2023/07/29 10:28:55;;;;;;;1.97;0.90;;;;;;;;;;5053367;28;20491;-75
2023/07/29 10:31:22;;;;;;;1.40;0.90;;;;;;;;;;5043445;28;20270;-77
2023/07/29 10:33:48;;;;;;;2.83;1.05;;;;;;;;;;5029102;28;20079;-77
2023/07/29 10:36:14;;;;;;;3.75;1.27;;;;;;;;;;5045406;28;20483;-77
2023/07/29 10:38:40;;;;;;;4.07;1.30;;;;;;;;;;5047494;28;20071;-76
2023/07/29 10:41:06;;;;;;;4.90;1.30;;;;;;;;;;5023760;28;20492;-76
2023/07/29 10:43:32;;;;;;;3.40;1.02;;;;;;;;;;5040047;28;20029;-76
2023/07/29 10:46:15;;;;;;;3.92;1.42;;;;;;;;;;5050861;28;20036;-77
2023/07/29 10:48:41;;;;;;;1.90;1.00;;;;;;;;;;5037818;28;20071;-76
2023/07/29 10:51:22;;;;;;;3.75;1.20;;;;;;;;;;5044370;28;20060;-77
2023/07/29 10:53:47;;;;;;;2.28;1.08;;;;;;;;;;5045656;28;20040;-77
2023/07/29 10:56:13;;;;;;;4.97;1.20;;;;;;;;;;5050498;28;20388;-77
2023/07/29 10:58:43;;;;;;;1.92;1.00;;;;;;;;;;5036274;28;20037;-75
2023/07/29 11:01:26;;;;;;;5.35;1.27;;;;;;;;;;5043913;28;20033;-77
2023/07/29 11:04:10;;;;;;;3.03;1.10;;;;;;;;;;5047167;28;20489;-76
2023/07/29 11:06:55;;;;;;;2.22;0.98;;;;;;;;;;5039927;28;20025;-77
2023/07/29 11:09:41;;;;;;;3.78;1.10;;;;;;;;;;5042574;28;20462;-77
2023/07/29 11:12:26;;;;;;;2.22;1.23;;;;;;;;;;5028563;28;20049;-77
2023/07/29 11:14:52;;;;;;;2.00;1.10;;;;;;;;;;5045993;28;20030;-76
2023/07/29 11:17:18;;;;;;;1.77;1.00;;;;;;;;;;5041863;28;20104;-76
2023/07/29 11:19:44;;;;;;;1.58;0.95;;;;;;;;;;5042333;28;20025;-75
2023/07/29 11:22:10;;;;;;;2.20;1.33;;;;;;;;;;5048729;28;20526;-75
2023/07/29 11:24:35;;;;;;;3.53;1.35;;;;;;;;;;5032402;28;20057;-77
2023/07/29 11:27:01;;;;;;;2.38;1.17;;;;;;;;;;5022383;28;20051;-75
2023/07/29 11:29:26;;;;;;;2.85;1.40;;;;;;;;;;5039826;28;20056;-77
2023/07/29 11:31:52;;;;;;;5.93;1.42;;;;;;;;;;5045733;28;20504;-76
2023/07/29 11:34:20;;;;;;;2.85;1.20;;;;;;;;;;5032607;28;20032;-76
2023/07/29 11:36:49;;;;;;;;;;;;;;;;;;5036849;28;20092;-77
2023/07/29 11:39:14;;;;;;;;;;;;;;;;;;5046215;28;19917;-77
2023/07/29 11:41:42;;;;;;;2.75;1.15;;;;;;;;;;5038471;28;20451;-76
2023/07/29 11:44:09;;;;;;;3.22;1.20;;;;;;;;;;5032058;28;20079;-77
2023/07/29 11:46:35;;;;;;;1.98;1.23;;;;;;;;;;5044067;28;20037;-76
2023/07/29 11:49:01;;;;;;;4.57;1.35;;;;;;;;;;5034089;28;20040;-76
2023/07/29 11:51:26;;;;;;;4.65;1.40;;;;;;;;;;5051655;28;20081;-76
2023/07/29 11:53:52;;;;;;;3.78;1.40;;;;;;;;;;5027122;28;20036;-76
2023/07/29 11:56:17;;;;;;;3.42;1.35;;;;;;;;;;5040840;28;20021;-77
2023/07/29 11:58:43;;;;;;;2.28;1.20;;;;;;;;;;5050220;28;20039;-76
2023/07/29 12:01:09;;;;;;;2.42;1.23;;;;;;;;;;5035798;28;20025;-77
2023/07/29 12:03:35;;;;;;;3.50;1.40;;;;;;;;;;5047254;28;20091;-76
2023/07/29 12:06:01;;;;;;;2.53;1.30;;;;;;;;;;5038523;28;20033;-75
2023/07/29 12:08:27;;;;;;;2.53;1.20;;;;;;;;;;5051788;28;20071;-76
2023/07/29 12:10:53;;;;;;;3.13;1.55;;;;;;;;;;5036400;28;20070;-76
2023/07/29 12:13:18;;;;;;;2.17;1.20;;;;;;;;;;5030486;28;20067;-76
2023/07/29 12:15:44;;;;;;;2.30;1.20;;;;;;;;;;5035370;28;20057;-77
2023/07/29 12:18:09;;;;;;;1.80;1.02;;;;;;;;;;5042597;28;20432;-74
2023/07/29 12:20:35;;;;;;;3.17;1.42;;;;;;;;;;5044472;28;20091;-76
2023/07/29 12:23:02;;;;;;;3.03;1.45;;;;;;;;;;5035637;28;20400;-77
2023/07/29 12:25:28;;;;;;;2.60;1.17;;;;;;;;;;5014313;28;20036;-76
2023/07/29 12:27:53;;;;;;;2.83;1.30;;;;;;;;;;5038844;28;20025;-74
2023/07/29 12:30:22;;;;;;;2.58;1.05;;;;;;;;;;5041655;28;20029;-77
2023/07/29 12:32:48;;;;;;;3.35;1.30;;;;;;;;;;5048922;28;20029;-76
2023/07/29 12:35:14;;;;;;;5.22;1.42;;;;;;;;;;5037442;28;20040;-77
2023/07/29 12:37:42;;;;;;;4.72;1.10;;;;;;;;;;5042083;28;20016;-76
2023/07/29 12:40:28;;;;;;;3.60;1.50;;;;;;;;;;5045357;28;20029;-76
2023/07/29 12:42:54;;;;;;;7.90;1.55;;;;;;;;;;5051416;28;20037;-77
2023/07/29 12:45:22;;;;;;;4.40;1.35;;;;;;;;;;5034149;28;20083;-77
2023/07/29 12:47:48;;;;;;;3.47;1.30;;;;;;;;;;5037510;28;20025;-77
2023/07/29 12:50:13;;;;;;;4.78;1.77;;;;;;;;;;5050208;28;20033;-76
2023/07/29 12:52:39;;;;;;;3.03;1.30;;;;;;;;;;5036682;28;20128;-75
2023/07/29 12:55:05;;;;;;;3.13;1.30;;;;;;;;;;5046792;28;20033;-76
2023/07/29 12:57:30;;;;;;;4.63;1.80;;;;;;;;;;5048424;28;20037;-77
2023/07/29 12:59:56;;;;;;;3.03;1.27;;;;;;;;;;5031412;28;20029;-77
2023/07/29 13:02:21;;;;;;;4.05;1.52;;;;;;;;;;5042248;28;20086;-77
2023/07/29 13:04:47;;;;;;;3.00;1.30;;;;;;;;;;5035756;28;20328;-77
2023/07/29 13:07:13;;;;;;;1.90;1.13;;;;;;;;;;5033656;28;20033;-76
2023/07/29 13:09:38;;;;;;;2.67;1.30;;;;;;;;;;5046018;28;20038;-76
2023/07/29 13:12:04;;;;;;;2.90;1.30;;;;;;;;;;5039338;28;20111;-76
2023/07/29 13:14:29;;;;;;;2.78;1.17;;;;;;;;;;5050391;28;20041;-76
2023/07/29 13:16:55;;;;;;;2.67;1.20;;;;;;;;;;5042437;28;20030;-76
2023/07/29 13:19:20;;;;;;;2.22;1.00;;;;;;;;;;5038750;28;20107;-76
2023/07/29 13:21:46;;;;;;;8.07;1.23;;;;;;;;;;5048535;28;20053;-76
2023/07/29 13:24:11;;;;;;;3.42;1.30;;;;;;;;;;5033501;28;20100;-76
2023/07/29 13:26:37;;;;;;;3.65;1.27;;;;;;;;;;5047381;28;20594;-76
2023/07/29 13:29:04;;;;;;;3.13;1.30;;;;;;;;;;5037666;28;20455;-76
2023/07/29 13:31:32;;;;;;;6.22;1.30;;;;;;;;;;5049386;28;20033;-77
2023/07/29 13:33:58;;;;;;;2.80;1.27;;;;;;;;;;5034452;28;20113;-75
2023/07/29 13:36:23;;;;;;;2.58;1.15;;;;;;;;;;5033209;28;20124;-76
2023/07/29 13:38:49;;;;;;;2.88;1.20;;;;;;;;;;5049011;28;20021;-76
2023/07/29 13:41:14;;;;;;;2.13;1.30;;;;;;;;;;5037609;28;20037;-78
2023/07/29 13:43:40;;;;;;;2.55;1.20;;;;;;;;;;5052944;28;20025;-76
2023/07/29 13:46:05;;;;;;;4.75;1.10;;;;;;;;;;5054405;28;20086;-77
2023/07/29 13:48:33;;;;;;;2.42;1.25;;;;;;;;;;5042086;28;20033;-76
2023/07/29 13:50:58;;;;;;;2.92;1.40;;;;;;;;;;5050275;28;20036;-76
2023/07/29 13:53:24;;;;;;;3.25;1.30;;;;;;;;;;5049937;28;20029;-75
2023/07/29 13:55:49;;;;;;;2.03;1.10;;;;;;;;;;5040281;28;20108;-75
2023/07/29 13:58:15;;;;;;;2.05;1.10;;;;;;;;;;5052982;28;20052;-74
2023/07/29 14:00:40;;;;;;;1.95;1.10;;;;;;;;;;5040856;28;20021;-77
2023/07/29 14:03:06;;;;;;;1.80;1.00;;;;;;;;;;5051119;28;20029;-76
2023/07/29 14:05:31;;;;;;;1.92;1.17;;;;;;;;;;5049927;28;20032;-76
2023/07/29 14:07:57;;;;;;;2.90;1.25;;;;;;;;;;5053826;28;20025;-77
2023/07/29 14:10:22;;;;;;;3.33;1.38;;;;;;;;;;5041447;28;20048;-76
2023/07/29 14:12:48;;;;;;;3.42;1.15;;;;;;;;;;5047421;28;20073;-76
2023/07/29 14:15:13;;;;;;;2.95;1.10;;;;;;;;;;5035648;28;20021;-78
2023/07/29 14:17:39;;;;;;;2.53;1.08;;;;;;;;;;5047769;28;20021;-76
2023/07/29 14:20:05;;;;;;;2.63;1.33;;;;;;;;;;5046199;28;20025;-77
2023/07/29 14:22:30;;;;;;;2.53;1.20;;;;;;;;;;5040420;28;20388;-77
2023/07/29 14:24:56;;;;;;;3.08;1.20;;;;;;;;;;5033692;28;20494;-75
2023/07/29 14:27:21;;;;;;;3.80;1.25;;;;;;;;;;5048625;28;20067;-75
2023/07/29 14:29:47;;;;;;;2.80;1.20;;;;;;;;;;5039310;28;20016;-77
2023/07/29 14:32:12;;;;;;;2.38;1.13;;;;;;;;;;5053353;28;20033;-77
2023/07/29 14:34:38;;;;;;;2.58;1.40;;;;;;;;;;5022485;28;20029;-74
2023/07/29 14:37:04;;;;;;;2.05;1.13;;;;;;;;;;5032445;28;20021;-76
2023/07/29 14:39:29;;;;;;;2.10;1.13;;;;;;;;;;5048302;28;20024;-76